createdAt,value
2023-03-25T00:00:33.901Z,99003.34
2023-03-25T00:01:38.399Z,99005.61
2023-03-25T00:02:41.245Z,99021.16
2023-03-25T00:03:44.397Z,99002.81
2023-03-25T00:04:53.452Z,99011.22
2023-03-25T00:05:56.565Z,99012.52
2023-03-25T00:06:58.690Z,99013.80
2023-03-25T00:08:05.389Z,99005.16
2023-03-25T00:09:07.753Z,98995.23
2023-03-25T00:10:13.625Z,98994.48
2023-03-25T00:11:20.413Z,99003.97
2023-03-25T00:12:22.674Z,98992.52
2023-03-25T00:13:27.554Z,98994.56
2023-03-25T00:14:29.653Z,98999.95
2023-03-25T00:15:34.170Z,98987.02
2023-03-25T00:16:41.324Z,98979.91
2023-03-25T00:17:43.332Z,98993.17
2023-03-25T00:18:46.631Z,98988.09
2023-03-25T00:19:49.293Z,98989.61
2023-03-25T00:20:52.931Z,98989.61
2023-03-25T00:21:55.112Z,98998.02
2023-03-25T00:23:03.496Z,98990.90
2023-03-25T00:24:06.243Z,98976.88
2023-03-25T00:25:13.357Z,98983.24
2023-03-25T00:26:17.007Z,98993.70
2023-03-25T00:27:21.076Z,98990.14
2023-03-25T00:28:23.254Z,98980.97
2023-03-25T00:29:25.348Z,98979.45
2023-03-25T00:30:32.746Z,98980.21
2023-03-25T00:31:34.936Z,98983.77
2023-03-25T00:32:38.858Z,98989.91
2023-03-25T00:33:42.328Z,98986.13
2023-03-25T00:34:50.478Z,98984.62
2023-03-25T00:35:53.004Z,98991.52
2023-03-25T00:37:00.329Z,98977.80
2023-03-25T00:38:02.532Z,98982.42
2023-03-25T00:39:05.181Z,98977.38
2023-03-25T00:40:11.186Z,98980.37
2023-03-25T00:41:18.296Z,98973.26
2023-03-25T00:42:20.384Z,98979.42
2023-03-25T00:43:25.144Z,98977.91
2023-03-25T00:44:30.350Z,98974.35
2023-03-25T00:45:39.520Z,98961.62
2023-03-25T00:46:43.695Z,98977.69
2023-03-25T00:47:47.934Z,98972.84
2023-03-25T00:48:50.812Z,98966.47
2023-03-25T00:49:52.872Z,98967.23
2023-03-25T00:50:56.465Z,98970.80
2023-03-25T00:52:01.535Z,98964.42
2023-03-25T00:53:07.328Z,98963.67
2023-03-25T00:54:09.444Z,98969.28
2023-03-25T00:55:11.639Z,98965.19
2023-03-25T00:56:14.447Z,98970.26
2023-03-25T00:57:16.786Z,98965.41
2023-03-25T00:58:18.719Z,98968.74
2023-03-25T00:59:21.342Z,98972.08
2023-03-25T01:00:23.990Z,98969.81
2023-03-25T01:01:26.806Z,98965.49
2023-03-25T01:02:28.988Z,98968.83
2023-03-25T01:03:30.932Z,98978.53
2023-03-25T01:04:34.575Z,98975.19
2023-03-25T01:05:37.061Z,98973.14
2023-03-25T01:06:40.585Z,98977.47
2023-03-25T01:07:42.638Z,98976.70
2023-03-25T01:08:44.533Z,98978.00
2023-03-25T01:09:47.072Z,98975.95
2023-03-25T01:10:49.420Z,98973.91
2023-03-25T01:11:51.368Z,98971.86
2023-03-25T01:12:54.486Z,98969.81
2023-03-25T01:13:57.449Z,98964.20
2023-03-25T01:15:00.572Z,98969.28
2023-03-25T01:16:06.503Z,98971.55
2023-03-25T01:17:08.666Z,98964.42
2023-03-25T01:18:10.574Z,98966.70
2023-03-25T01:19:12.650Z,98971.02
2023-03-25T01:20:15.577Z,98968.21
2023-03-25T01:21:17.965Z,98970.45
2023-03-25T01:22:20.022Z,98969.92
2023-03-25T01:23:21.912Z,98966.59
2023-03-25T01:24:23.709Z,98968.33
2023-03-25T01:25:25.753Z,98970.59
2023-03-25T01:26:27.870Z,98975.67
2023-03-25T01:27:29.660Z,98975.14
2023-03-25T01:28:31.567Z,98971.80
2023-03-25T01:29:33.629Z,98972.78
2023-03-25T01:30:35.761Z,98975.05
2023-03-25T01:31:38.194Z,98976.56
2023-03-25T01:32:40.084Z,98977.32
2023-03-25T01:33:42.014Z,98971.71
2023-03-25T01:34:44.720Z,98969.09
2023-03-25T01:35:46.904Z,98972.66
2023-03-25T01:36:49.079Z,98972.47
2023-03-25T01:37:51.120Z,98969.66
2023-03-25T01:38:53.186Z,98975.47
2023-03-25T01:39:55.165Z,98972.66
2023-03-25T01:40:57.456Z,98966.30
2023-03-25T01:41:59.362Z,98971.91
2023-03-25T01:43:01.368Z,98970.42
2023-03-25T01:44:12.009Z,98970.95
2023-03-25T01:45:23.350Z,98972.47
2023-03-25T01:46:26.719Z,98971.71
2023-03-25T01:47:28.790Z,98969.66
2023-03-25T01:49:51.272Z,98973.69
2023-03-25T01:51:04.368Z,98970.53
2023-03-25T01:52:12.231Z,98978.63
2023-03-25T01:53:16.647Z,98969.90
2023-03-25T01:54:19.114Z,98972.39
2023-03-25T01:55:21.062Z,98964.92
2023-03-25T01:57:35.702Z,98959.78
2023-03-25T01:58:37.763Z,98975.52
2023-03-25T01:59:39.719Z,98963.98
2023-03-25T02:00:42.478Z,98965.49
2023-03-25T02:01:47.572Z,98965.71
2023-03-25T02:02:49.777Z,98975.64
2023-03-25T02:03:52.377Z,98960.31
2023-03-25T02:06:16.741Z,98962.90
2023-03-25T02:07:18.878Z,98961.83
2023-03-25T02:08:21.978Z,98958.27
2023-03-25T02:09:24.212Z,98961.08
2023-03-25T02:10:26.283Z,98959.02
2023-03-25T02:11:28.330Z,98962.02
2023-03-25T02:12:30.423Z,98962.02
2023-03-25T02:13:32.365Z,98957.70
2023-03-25T02:14:34.649Z,98957.70
2023-03-25T02:16:00.131Z,98958.45
2023-03-25T02:18:45.184Z,98957.75
2023-03-25T02:20:17.373Z,98946.48
2023-03-25T02:22:54.330Z,98955.98
2023-03-25T02:25:27.658Z,98948.11
2023-03-25T02:26:42.928Z,98949.84
2023-03-25T02:28:10.084Z,98950.61
2023-03-25T02:29:15.946Z,98943.67
2023-03-25T02:30:40.340Z,98947.23
2023-03-25T02:31:52.624Z,98947.23
2023-03-25T02:33:17.209Z,98950.04
2023-03-25T02:34:35.017Z,98945.75
2023-03-25T02:35:46.993Z,98942.72
2023-03-25T02:37:16.784Z,98938.41
2023-03-25T02:38:41.106Z,98942.28
2023-03-25T02:39:56.274Z,98937.20
2023-03-25T02:41:05.184Z,98937.20
2023-03-25T02:43:54.678Z,98944.99
2023-03-25T02:44:59.477Z,98942.92
2023-03-25T02:46:05.418Z,98946.48
2023-03-25T02:47:09.789Z,98940.87
2023-03-25T02:49:42.400Z,98947.05
2023-03-25T02:52:01.365Z,98950.80
2023-03-25T02:53:05.168Z,98949.50
2023-03-25T02:54:10.006Z,98953.83
2023-03-25T02:55:13.309Z,98947.45
2023-03-25T02:56:16.858Z,98943.36
2023-03-25T02:58:30.176Z,98948.74
2023-03-25T02:59:32.446Z,98951.56
2023-03-25T03:00:35.574Z,98947.67
2023-03-25T03:01:37.553Z,98950.48
2023-03-25T03:02:39.794Z,98951.23
2023-03-25T03:03:42.058Z,98946.38
2023-03-25T03:06:15.916Z,98951.23
2023-03-25T03:08:49.885Z,98943.57
2023-03-25T03:10:01.815Z,98943.80
2023-03-25T03:11:13.511Z,98943.80
2023-03-25T03:12:19.270Z,98946.06
2023-03-25T03:13:54.469Z,98955.24
2023-03-25T03:15:18.238Z,98943.27
2023-03-25T03:16:27.331Z,98946.06
2023-03-25T03:17:35.896Z,98948.11
2023-03-25T03:20:19.908Z,98942.81
2023-03-25T03:22:40.987Z,98932.03
2023-03-25T03:24:17.137Z,98937.41
2023-03-25T03:25:28.942Z,98936.99
2023-03-25T03:26:43.841Z,98937.84
2023-03-25T03:27:49.166Z,98939.45
2023-03-25T03:29:07.137Z,98942.56
2023-03-25T03:30:13.105Z,98936.77
2023-03-25T03:31:50.810Z,98942.16
2023-03-25T03:32:43.289Z,98939.88
2023-03-25T03:33:51.914Z,98936.09
2023-03-25T03:35:00.234Z,98940.73
2023-03-25T03:36:06.006Z,98936.19
2023-03-25T03:37:08.197Z,98935.97
2023-03-25T03:38:11.685Z,98944.91
2023-03-25T03:40:29.887Z,98943.75
2023-03-25T03:41:32.841Z,98946.73
2023-03-25T03:42:40.921Z,98950.52
2023-03-25T03:45:02.051Z,98950.22
2023-03-25T03:49:44.674Z,98943.66
2023-03-25T03:52:20.243Z,98939.80
2023-03-25T03:53:29.870Z,98943.77
2023-03-25T03:54:34.648Z,98940.20
2023-03-25T03:55:40.648Z,98940.74
2023-03-25T03:58:04.100Z,98925.33
2023-03-25T03:59:23.265Z,98942.37
2023-03-25T04:00:31.726Z,98936.77
2023-03-25T04:01:40.143Z,98932.33
2023-03-25T04:02:50.662Z,98922.30
2023-03-25T04:03:56.573Z,98920.47
2023-03-25T04:04:58.674Z,98930.62
2023-03-25T04:06:03.957Z,98928.80
2023-03-25T04:07:17.328Z,98921.89
2023-03-25T04:08:31.448Z,98920.57
2023-03-25T04:11:00.405Z,98913.03
2023-03-25T04:12:14.214Z,98918.86
2023-03-25T04:13:16.241Z,98921.67
2023-03-25T04:14:18.220Z,98920.38
2023-03-25T04:15:20.381Z,98924.13
2023-03-25T04:16:22.402Z,98916.47
2023-03-25T04:17:24.481Z,98919.84
2023-03-25T04:18:26.557Z,98914.95
2023-03-25T04:19:28.567Z,98919.63
2023-03-25T04:20:32.193Z,98924.25
2023-03-25T04:21:34.577Z,98923.28
2023-03-25T04:22:36.728Z,98921.55
2023-03-25T04:23:38.716Z,98919.81
2023-03-25T04:24:40.724Z,98916.56
2023-03-25T04:25:43.743Z,98921.23
2023-03-25T04:26:46.025Z,98912.91
2023-03-25T04:27:48.105Z,98921.63
2023-03-25T04:28:50.071Z,98921.41
2023-03-25T04:29:52.570Z,98917.63
2023-03-25T04:30:54.913Z,98922.25
2023-03-25T04:31:57.929Z,98913.65
2023-03-25T04:33:00.109Z,98924.11
2023-03-25T04:34:02.595Z,98922.59
2023-03-25T04:35:05.242Z,98923.12
2023-03-25T04:36:09.168Z,98918.81
2023-03-25T04:37:11.246Z,98924.20
2023-03-25T04:38:13.185Z,98917.08
2023-03-25T04:39:15.635Z,98926.77
2023-03-25T04:40:18.071Z,98926.02
2023-03-25T04:41:20.045Z,98923.97
2023-03-25T04:42:22.333Z,98916.85
2023-03-25T04:43:24.677Z,98920.41
2023-03-25T04:44:28.724Z,98920.95
2023-03-25T04:45:31.013Z,98922.99
2023-03-25T04:46:33.492Z,98927.84
2023-03-25T04:48:37.811Z,98933.23
2023-03-25T04:49:40.152Z,98930.42
2023-03-25T04:50:42.136Z,98933.45
2023-03-25T04:51:44.682Z,98930.87
2023-03-25T04:52:47.275Z,98930.34
2023-03-25T04:53:49.222Z,98933.36
2023-03-25T04:54:51.780Z,98938.97
2023-03-25T04:55:55.211Z,98938.21
2023-03-25T04:56:57.622Z,98935.94
2023-03-25T04:57:59.638Z,98942.31
2023-03-25T04:59:01.670Z,98933.14
2023-03-25T05:00:05.270Z,98935.94
2023-03-25T05:01:07.723Z,98938.21
2023-03-25T05:02:09.855Z,98931.85
2023-03-25T05:03:12.317Z,98940.27
2023-03-25T05:04:15.421Z,98939.50
2023-03-25T05:05:19.384Z,98933.67
2023-03-25T05:06:21.394Z,98935.72
2023-03-25T05:07:23.341Z,98939.05
2023-03-25T05:08:25.294Z,98933.67
2023-03-25T05:09:27.742Z,98939.28
2023-03-25T05:10:29.915Z,98938.75
2023-03-25T05:11:33.470Z,98936.17
2023-03-25T05:12:35.979Z,98938.21
2023-03-25T05:13:38.823Z,98934.13
2023-03-25T05:14:42.799Z,98931.31
2023-03-25T05:15:45.671Z,98939.95
2023-03-25T05:16:47.916Z,98933.05
2023-03-25T05:17:50.056Z,98938.89
2023-03-25T05:18:52.192Z,98931.95
2023-03-25T05:19:54.593Z,98928.09
2023-03-25T05:20:57.387Z,98922.48
2023-03-25T05:21:59.625Z,98919.90
2023-03-25T05:23:01.597Z,98918.60
2023-03-25T05:24:04.904Z,98921.19
2023-03-25T05:25:07.999Z,98917.63
2023-03-25T05:26:10.899Z,98916.11
2023-03-25T05:27:12.888Z,98923.55
2023-03-25T05:28:15.145Z,98922.06
2023-03-25T05:29:17.711Z,98917.75
2023-03-25T05:30:20.305Z,98916.98
2023-03-25T05:31:22.296Z,98914.72
2023-03-25T05:32:25.085Z,98914.94
2023-03-25T05:33:27.303Z,98911.37
2023-03-25T05:34:29.267Z,98914.94
2023-03-25T05:35:31.359Z,98909.87
2023-03-25T05:36:34.377Z,98899.41
2023-03-25T05:37:36.331Z,98902.44
2023-03-25T05:38:41.138Z,98908.23
2023-03-25T05:39:45.243Z,98902.84
2023-03-25T05:40:47.819Z,98895.95
2023-03-25T05:41:49.813Z,98898.00
2023-03-25T05:42:57.888Z,98902.84
2023-03-25T05:44:00.048Z,98899.29
2023-03-25T05:45:03.296Z,98906.19
2023-03-25T05:46:06.192Z,98903.92
2023-03-25T05:47:08.355Z,98902.97
2023-03-25T05:48:10.773Z,98912.67
2023-03-25T05:49:13.119Z,98903.50
2023-03-25T05:50:15.739Z,98909.11
2023-03-25T05:51:18.238Z,98901.23
2023-03-25T05:52:20.318Z,98896.92
2023-03-25T05:53:22.230Z,98903.59
2023-03-25T05:54:24.913Z,98902.84
2023-03-25T05:55:27.398Z,98900.56
2023-03-25T05:56:29.734Z,98899.36
2023-03-25T05:57:32.083Z,98897.63
2023-03-25T05:58:34.520Z,98898.72
2023-03-25T05:59:36.553Z,98900.55
2023-03-25T06:00:39.277Z,98902.34
2023-03-25T06:01:41.354Z,98906.96
2023-03-25T06:02:44.338Z,98905.98
2023-03-25T06:03:46.699Z,98905.75
2023-03-25T06:04:49.271Z,98909.09
2023-03-25T06:05:51.363Z,98903.26
2023-03-25T06:06:53.578Z,98901.02
2023-03-25T06:07:56.508Z,98899.50
2023-03-25T06:08:59.132Z,98902.08
2023-03-25T06:10:01.315Z,98902.61
2023-03-25T06:11:03.635Z,98903.14
2023-03-25T06:12:06.155Z,98902.16
2023-03-25T06:13:08.225Z,98899.12
2023-03-25T06:14:10.206Z,98893.53
2023-03-25T06:15:14.017Z,98896.86
2023-03-25T06:16:21.334Z,98894.59
2023-03-25T06:17:24.200Z,98894.36
2023-03-25T06:18:26.376Z,98897.50
2023-03-25T06:19:28.335Z,98897.27
2023-03-25T06:20:30.901Z,98897.05
2023-03-25T06:21:33.698Z,98884.33
2023-03-25T06:22:43.581Z,98891.22
2023-03-25T06:23:46.275Z,98889.70
2023-03-25T06:24:48.406Z,98887.66
2023-03-25T06:25:50.742Z,98878.73
2023-03-25T06:26:53.652Z,98879.48
2023-03-25T06:27:55.765Z,98882.51
2023-03-25T06:28:58.733Z,98880.13
2023-03-25T06:30:02.280Z,98868.84
2023-03-25T06:31:17.383Z,98878.15
2023-03-25T06:32:19.995Z,98876.52
2023-03-25T06:33:42.375Z,98881.06
2023-03-25T06:34:27.413Z,98871.37
2023-03-25T06:35:29.500Z,98881.06
2023-03-25T06:36:39.152Z,98881.59
2023-03-25T06:37:42.011Z,98872.66
2023-03-25T06:38:47.157Z,98868.34
2023-03-25T06:39:50.875Z,98868.13
2023-03-25T06:41:02.524Z,98866.83
2023-03-25T06:42:05.208Z,98870.61
2023-03-25T06:44:28.105Z,98880.39
2023-03-25T06:45:52.473Z,98876.22
2023-03-25T06:46:57.372Z,98873.19
2023-03-25T06:48:03.565Z,98887.20
2023-03-25T06:49:08.779Z,98887.95
2023-03-25T06:50:12.252Z,98893.34
2023-03-25T06:51:15.476Z,98886.25
2023-03-25T06:52:17.681Z,98879.89
2023-03-25T06:53:20.632Z,98884.73
2023-03-25T06:54:23.675Z,98882.69
2023-03-25T06:55:26.785Z,98883.98
2023-03-25T06:56:28.986Z,98881.71
2023-03-25T06:57:31.532Z,98872.32
2023-03-25T06:58:36.042Z,98883.00
2023-03-25T06:59:38.577Z,98877.39
2023-03-25T07:00:42.715Z,98870.50
2023-03-25T07:01:45.157Z,98879.13
2023-03-25T07:02:47.866Z,98884.20
2023-03-25T07:03:50.052Z,98871.67
2023-03-25T07:04:55.792Z,98873.19
2023-03-25T07:05:58.472Z,98879.02
2023-03-25T07:07:00.872Z,98879.77
2023-03-25T07:08:04.224Z,98881.06
2023-03-25T07:09:06.511Z,98873.72
2023-03-25T07:10:16.916Z,98882.13
2023-03-25T07:11:23.985Z,98876.52
2023-03-25T07:12:26.205Z,98877.28
2023-03-25T07:13:29.084Z,98876.52
2023-03-25T07:14:38.104Z,98880.09
2023-03-25T07:15:43.993Z,98882.69
2023-03-25T07:16:54.319Z,98872.77
2023-03-25T07:17:59.174Z,98882.13
2023-03-25T07:19:01.456Z,98873.72
2023-03-25T07:20:05.825Z,98877.09
2023-03-25T07:21:08.850Z,98874.28
2023-03-25T07:22:14.689Z,98870.72
2023-03-25T07:23:21.098Z,98867.92
2023-03-25T07:24:24.275Z,98866.41
2023-03-25T07:25:26.552Z,98869.75
2023-03-25T07:26:30.789Z,98863.38
2023-03-25T07:27:33.222Z,98866.72
2023-03-25T07:28:40.841Z,98862.94
2023-03-25T07:29:48.151Z,98860.13
2023-03-25T07:30:50.604Z,98855.28
2023-03-25T07:31:59.887Z,98851.73
2023-03-25T07:33:02.476Z,98845.81
2023-03-25T07:34:09.171Z,98852.17
2023-03-25T07:35:11.658Z,98857.25
2023-03-25T07:36:17.816Z,98862.85
2023-03-25T07:37:20.092Z,98853.69
2023-03-25T07:38:22.618Z,98860.58
2023-03-25T07:39:25.582Z,98853.47
2023-03-25T07:41:48.928Z,98844.55
2023-03-25T07:42:59.542Z,98839.38
2023-03-25T07:44:12.625Z,98839.03
2023-03-25T07:45:15.366Z,98844.10
2023-03-25T07:46:18.422Z,98840.77
2023-03-25T07:47:20.746Z,98840.77
2023-03-25T07:48:23.005Z,98840.23
2023-03-25T07:49:25.781Z,98841.21
2023-03-25T07:50:28.243Z,98843.48
2023-03-25T07:51:30.523Z,98839.64
2023-03-25T07:52:32.821Z,98840.81
2023-03-25T07:53:36.171Z,98839.20
2023-03-25T07:54:38.664Z,98835.33
2023-03-25T07:55:42.307Z,98839.33
2023-03-25T07:56:44.655Z,98834.16
2023-03-25T07:57:47.505Z,98837.38
2023-03-25T07:58:49.899Z,98837.28
2023-03-25T07:59:52.754Z,98837.19
2023-03-25T08:00:56.835Z,98831.48
2023-03-25T08:02:11.036Z,98831.12
2023-03-25T08:03:13.609Z,98840.52
2023-03-25T08:05:34.668Z,98825.40
2023-03-25T08:06:42.612Z,98832.76
2023-03-25T08:07:44.801Z,98824.56
2023-03-25T08:08:47.293Z,98834.70
2023-03-25T08:09:52.893Z,98814.31
2023-03-25T08:11:02.028Z,98828.55
2023-03-25T08:12:08.483Z,98825.53
2023-03-25T08:13:16.797Z,98814.53
2023-03-25T08:14:19.157Z,98838.27
2023-03-25T08:15:21.889Z,98825.85
2023-03-25T08:16:26.398Z,98820.03
2023-03-25T08:17:31.171Z,98825.63
2023-03-25T08:18:33.474Z,98827.69
2023-03-25T08:19:35.755Z,98827.47
2023-03-25T08:20:38.501Z,98819.05
2023-03-25T08:21:44.677Z,98816.78
2023-03-25T08:23:01.755Z,98813.23
2023-03-25T08:24:04.864Z,98810.20
2023-03-25T08:25:09.163Z,98816.03
2023-03-25T08:26:12.952Z,98814.20
2023-03-25T08:27:16.677Z,98805.03
2023-03-25T08:28:20.522Z,98810.09
2023-03-25T08:29:24.286Z,98802.44
2023-03-25T08:30:28.130Z,98805.46
2023-03-25T08:31:31.354Z,98805.46
2023-03-25T08:32:34.601Z,98799.85
2023-03-25T08:34:57.990Z,98797.34
2023-03-25T08:36:02.011Z,98815.92
2023-03-25T08:37:04.860Z,98809.02
2023-03-25T08:38:09.100Z,98812.27
2023-03-25T08:39:11.732Z,98793.59
2023-03-25T08:40:14.850Z,98794.75
2023-03-25T08:41:17.551Z,98793.34
2023-03-25T08:42:20.916Z,98799.39
2023-03-25T08:43:23.134Z,98781.25
2023-03-25T08:44:25.436Z,98791.19
2023-03-25T08:45:27.626Z,98784.06
2023-03-25T08:46:30.285Z,98794.75
2023-03-25T08:47:33.591Z,98783.31
2023-03-25T08:48:35.960Z,98791.94
2023-03-25T08:49:37.987Z,98778.66
2023-03-25T08:50:41.341Z,98775.64
2023-03-25T08:51:43.505Z,98774.89
2023-03-25T08:52:45.612Z,98777.70
2023-03-25T08:53:47.845Z,98762.37
2023-03-25T08:54:49.873Z,98769.48
2023-03-25T08:55:54.042Z,98756.97
2023-03-25T08:56:56.400Z,98768.19
2023-03-25T08:58:03.417Z,98759.02
2023-03-25T08:59:05.571Z,98755.24
2023-03-25T09:00:10.112Z,98754.48
2023-03-25T09:01:12.500Z,98755.78
2023-03-25T09:02:15.286Z,98760.64
2023-03-25T09:03:17.382Z,98760.42
2023-03-25T09:04:19.466Z,98772.95
2023-03-25T09:05:22.089Z,98758.49
2023-03-25T09:06:24.421Z,98752.34
2023-03-25T09:07:26.951Z,98763.78
2023-03-25T09:08:29.083Z,98756.33
2023-03-25T09:09:31.454Z,98753.95
2023-03-25T09:10:34.746Z,98759.20
2023-03-25T09:11:37.894Z,98757.91
2023-03-25T09:12:40.173Z,98748.95
2023-03-25T09:13:42.377Z,98753.80
2023-03-25T09:14:44.400Z,98746.14
2023-03-25T09:15:47.071Z,98753.26
2023-03-25T09:16:49.498Z,98758.87
2023-03-25T09:17:51.879Z,98750.45
2023-03-25T09:18:53.972Z,98758.12
2023-03-25T09:19:57.705Z,98751.20
2023-03-25T09:21:00.353Z,98745.59
2023-03-25T09:22:02.591Z,98756.82
2023-03-25T09:23:05.308Z,98752.72
2023-03-25T09:24:08.216Z,98754.77
2023-03-25T09:25:10.299Z,98755.31
2023-03-25T09:26:12.871Z,98764.48
2023-03-25T09:27:14.864Z,98757.91
2023-03-25T09:28:17.160Z,98763.34
2023-03-25T09:29:19.264Z,98755.64
2023-03-25T09:30:21.465Z,98762.01
2023-03-25T09:31:24.139Z,98756.97
2023-03-25T09:32:26.281Z,98751.14
2023-03-25T09:33:28.596Z,98739.91
2023-03-25T09:34:30.597Z,98742.18
2023-03-25T09:35:33.201Z,98747.22
2023-03-25T09:36:38.355Z,98754.34
2023-03-25T09:37:42.498Z,98745.38
2023-03-25T09:38:45.225Z,98749.70
2023-03-25T09:39:47.398Z,98756.06
2023-03-25T09:40:55.735Z,98756.28
2023-03-25T09:42:31.702Z,98755.73
2023-03-25T09:43:41.741Z,98749.58
2023-03-25T09:44:56.793Z,98748.73
2023-03-25T09:45:59.088Z,98742.79
2023-03-25T09:47:01.465Z,98750.84
2023-03-25T09:49:41.478Z,98744.66
2023-03-25T09:50:48.677Z,98748.47
2023-03-25T09:52:59.015Z,98748.89
2023-03-25T09:54:06.274Z,98741.97
2023-03-25T09:55:10.884Z,98746.29
2023-03-25T09:56:19.266Z,98739.38
2023-03-25T09:57:25.166Z,98739.38
2023-03-25T09:58:42.601Z,98750.81
2023-03-25T09:59:49.695Z,98748.22
2023-03-25T10:02:43.733Z,98737.45
2023-03-25T10:03:59.473Z,98734.94
2023-03-25T10:05:18.232Z,98730.83
2023-03-25T10:06:21.012Z,98733.06
2023-03-25T10:07:45.704Z,98733.27
2023-03-25T10:08:57.421Z,98732.52
2023-03-25T10:12:03.833Z,98724.24
2023-03-25T10:13:38.387Z,98737.80
2023-03-25T10:15:07.427Z,98728.95
2023-03-25T10:16:22.342Z,98727.66
2023-03-25T10:17:31.936Z,98726.90
2023-03-25T10:18:43.044Z,98720.53
2023-03-25T10:20:27.279Z,98730.45
2023-03-25T10:21:30.101Z,98725.05
2023-03-25T10:22:51.348Z,98729.91
2023-03-25T10:24:04.137Z,98721.48
2023-03-25T10:25:15.603Z,98723.55
2023-03-25T10:26:45.295Z,98718.14
2023-03-25T10:27:51.502Z,98714.23
2023-03-25T10:29:01.855Z,98706.22
2023-03-25T10:30:11.123Z,98696.70
2023-03-25T10:31:18.066Z,98687.73
2023-03-25T10:32:33.640Z,98681.74
2023-03-25T10:33:37.320Z,98688.32
2023-03-25T10:34:51.861Z,98685.17
2023-03-25T10:35:55.244Z,98680.30
2023-03-25T10:39:11.949Z,98672.73
2023-03-25T10:40:55.327Z,98675.30
2023-03-25T10:42:02.655Z,98672.70
2023-03-25T10:43:33.836Z,98679.06
2023-03-25T10:44:36.123Z,98675.70
2023-03-25T10:45:39.518Z,98677.02
2023-03-25T10:46:54.828Z,98679.61
2023-03-25T10:49:21.899Z,98680.61
2023-03-25T10:50:27.801Z,98685.98
2023-03-25T10:51:37.336Z,98682.05
2023-03-25T10:52:40.808Z,98679.66
2023-03-25T10:53:47.182Z,98670.88
2023-03-25T10:54:54.848Z,98666.97
2023-03-25T10:56:18.223Z,98670.18
2023-03-25T10:58:36.847Z,98653.28
2023-03-25T11:01:44.218Z,98656.64
2023-03-25T11:03:31.514Z,98658.09
2023-03-25T11:04:36.496Z,98657.84
2023-03-25T11:05:39.101Z,98662.53
2023-03-25T11:06:44.115Z,98659.60
2023-03-25T11:07:52.628Z,98648.01
2023-03-25T11:09:15.974Z,98653.83
2023-03-25T11:10:22.966Z,98646.91
2023-03-25T11:11:32.177Z,98650.09
2023-03-25T11:12:42.926Z,98644.66
2023-03-25T11:13:39.222Z,98649.94
2023-03-25T11:14:41.232Z,98639.64
2023-03-25T11:15:43.763Z,98643.76
2023-03-25T11:16:48.899Z,98640.19
2023-03-25T11:19:27.819Z,98643.60
2023-03-25T11:20:39.614Z,98638.84
2023-03-25T11:21:46.045Z,98637.91
2023-03-25T11:22:50.566Z,98633.59
2023-03-25T11:23:52.610Z,98635.86
2023-03-25T11:25:00.203Z,98635.27
2023-03-25T11:26:07.786Z,98638.09
2023-03-25T11:27:09.895Z,98631.91
2023-03-25T11:28:21.765Z,98637.53
2023-03-25T11:29:25.700Z,98636.23
2023-03-25T11:30:27.886Z,98629.66
2023-03-25T11:31:44.602Z,98637.36
2023-03-25T11:32:59.201Z,98637.91
2023-03-25T11:34:08.750Z,98632.84
2023-03-25T11:35:16.184Z,98639.77
2023-03-25T11:36:22.325Z,98639.22
2023-03-25T11:37:24.881Z,98636.41
2023-03-25T11:38:27.742Z,98634.15
2023-03-25T11:39:34.427Z,98638.47
2023-03-25T11:40:37.873Z,98634.91
2023-03-25T11:41:40.564Z,98643.54
2023-03-25T11:43:53.689Z,98632.35
2023-03-25T11:44:56.452Z,98629.85
2023-03-25T11:46:14.104Z,98632.11
2023-03-25T11:47:23.215Z,98630.25
2023-03-25T11:48:29.615Z,98627.44
2023-03-25T11:49:34.407Z,98630.80
2023-03-25T11:50:36.775Z,98624.98
2023-03-25T11:51:39.898Z,98632.86
2023-03-25T11:52:45.467Z,98633.06
2023-03-25T11:55:01.043Z,98638.74
2023-03-25T11:56:06.117Z,98638.13
2023-03-25T11:57:17.447Z,98639.99
2023-03-25T11:58:21.553Z,98633.42
2023-03-25T11:59:29.697Z,98641.09
2023-03-25T12:00:39.957Z,98644.46
2023-03-25T12:01:45.590Z,98642.03
2023-03-25T12:02:48.158Z,98642.03
2023-03-25T12:03:51.071Z,98638.67
2023-03-25T12:06:20.285Z,98643.05
2023-03-25T12:07:22.364Z,98642.05
2023-03-25T12:08:24.355Z,98640.75
2023-03-25T12:09:30.414Z,98636.63
2023-03-25T12:10:54.796Z,98641.50
2023-03-25T12:14:02.083Z,98640.44
2023-03-25T12:16:39.597Z,98640.03
2023-03-25T12:18:05.723Z,98629.09
2023-03-25T12:19:26.585Z,98629.85
2023-03-25T12:21:01.774Z,98639.04
2023-03-25T12:22:07.579Z,98633.42
2023-03-25T12:23:34.611Z,98633.97
2023-03-25T12:25:00.188Z,98637.36
2023-03-25T12:27:52.064Z,98633.46
2023-03-25T12:30:44.449Z,98632.51
2023-03-25T12:32:11.033Z,98632.30
2023-03-25T12:33:37.247Z,98629.66
2023-03-25T12:34:58.340Z,98640.55
2023-03-25T12:36:38.821Z,98638.69
2023-03-25T12:41:18.854Z,98644.00
2023-03-25T12:42:27.967Z,98643.55
2023-03-25T12:43:47.152Z,98640.94
2023-03-25T12:45:08.834Z,98646.21
2023-03-25T12:46:39.638Z,98644.16
2023-03-25T12:47:42.888Z,98640.23
2023-03-25T12:49:01.366Z,98642.50
2023-03-25T12:50:37.439Z,98642.50
2023-03-25T12:52:06.307Z,98638.38
2023-03-25T12:53:32.816Z,98629.19
2023-03-25T12:54:39.516Z,98645.50
2023-03-25T12:57:06.862Z,98632.41
2023-03-25T12:58:22.852Z,98634.06
2023-03-25T12:59:48.427Z,98632.75
2023-03-25T13:01:20.044Z,98633.50
2023-03-25T13:02:35.148Z,98635.01
2023-03-25T13:03:44.026Z,98638.55
2023-03-25T13:04:59.071Z,98632.20
2023-03-25T13:06:20.143Z,98635.01
2023-03-25T13:08:55.774Z,98626.03
2023-03-25T13:10:19.006Z,98629.73
2023-03-25T13:11:39.748Z,98633.86
2023-03-25T13:14:10.594Z,98620.36
2023-03-25T13:15:26.353Z,98620.31
2023-03-25T13:16:26.949Z,98625.94
2023-03-25T13:17:41.160Z,98623.67
2023-03-25T13:20:13.335Z,98619.41
2023-03-25T13:21:24.128Z,98620.30
2023-03-25T13:23:46.394Z,98613.02
2023-03-25T13:24:50.801Z,98618.41
2023-03-25T13:29:30.768Z,98620.11
2023-03-25T13:30:36.861Z,98613.18
2023-03-25T13:31:40.367Z,98623.88
2023-03-25T13:32:44.966Z,98614.89
2023-03-25T13:33:50.250Z,98615.84
2023-03-25T13:35:01.359Z,98601.22
2023-03-25T13:36:20.605Z,98604.23
2023-03-25T13:37:31.488Z,98600.86
2023-03-25T13:40:05.530Z,98605.78
2023-03-25T13:42:36.681Z,98603.92
2023-03-25T13:46:51.304Z,98585.73
2023-03-25T13:48:13.795Z,98597.51
2023-03-25T13:49:37.408Z,98597.51
2023-03-25T13:50:39.999Z,98595.64
2023-03-25T13:51:42.080Z,98594.89
2023-03-25T13:52:47.755Z,98584.39
2023-03-25T13:53:53.267Z,98591.52
2023-03-25T13:55:01.188Z,98584.59
2023-03-25T13:56:13.590Z,98587.41
2023-03-25T13:59:05.327Z,98587.05
2023-03-25T14:00:19.989Z,98585.34
2023-03-25T14:01:52.424Z,98572.78
2023-03-25T14:03:07.342Z,98576.34
2023-03-25T14:06:09.032Z,98563.06
2023-03-25T14:07:18.146Z,98572.06
2023-03-25T14:10:03.792Z,98572.81
2023-03-25T14:11:25.660Z,98569.63
2023-03-25T14:13:55.086Z,98566.84
2023-03-25T14:16:24.708Z,98567.59
2023-03-25T14:17:27.698Z,98560.27
2023-03-25T14:18:29.792Z,98561.77
2023-03-25T14:19:34.890Z,98566.09
2023-03-25T14:20:41.367Z,98565.53
2023-03-25T14:22:58.537Z,98559.52
2023-03-25T14:25:34.807Z,98557.47
2023-03-25T14:26:44.241Z,98556.34
2023-03-25T14:27:49.748Z,98555.75
2023-03-25T14:28:52.235Z,98553.69
2023-03-25T14:30:02.188Z,98553.69
2023-03-25T14:31:23.282Z,98545.25
2023-03-25T14:32:34.636Z,98549.56